Preview of NWS' New Version of Forecast
This preview is not operational and should not be used for support decisions.

Terminal Aerodrome Forecast (TAF)

Issued by National Weather Service (NWS)

                            
820 
FTUS42 KKEY 260905 AAA
TAFEYW
TAF AMD
KEYW 260905Z 2609/2706 36003KT P6SM FEW020
     FM261000 34007KT P6SM FEW025
     FM262200 33011G18KT P6SM SCT015=